createdAt,value
2023-05-19T00:01:37.783Z,4.13
2023-05-19T00:04:07.959Z,3.65
2023-05-19T00:06:37.159Z,3.50
2023-05-19T00:09:09.524Z,2.95
2023-05-19T00:11:39.769Z,3.80
2023-05-19T00:14:10.591Z,3.58
2023-05-19T00:16:39.688Z,3.55
2023-05-19T00:19:10.360Z,2.35
2023-05-19T00:21:40.352Z,3.80
2023-05-19T00:24:10.419Z,3.50
2023-05-19T00:26:39.070Z,3.67
2023-05-19T00:29:08.555Z,2.92
2023-05-19T00:31:37.110Z,3.30
2023-05-19T00:34:05.696Z,3.90
2023-05-19T00:36:34.327Z,3.30
2023-05-19T00:39:02.976Z,3.53
2023-05-19T00:41:33.113Z,4.07
2023-05-19T00:44:01.737Z,3.83
2023-05-19T00:46:30.909Z,4.13
2023-05-19T00:48:59.763Z,3.35
2023-05-19T00:51:29.804Z,3.08
2023-05-19T00:53:59.254Z,3.20
2023-05-19T00:56:28.320Z,3.47
2023-05-19T00:58:59.643Z,2.90
2023-05-19T01:01:28.837Z,3.05
2023-05-19T01:04:01.430Z,4.70
2023-05-19T01:06:30.273Z,3.08
2023-05-19T01:08:58.870Z,5.03
2023-05-19T01:11:27.369Z,3.25
2023-05-19T01:13:56.603Z,3.25
2023-05-19T01:16:32.573Z,3.75
2023-05-19T01:19:10.899Z,3.95
2023-05-19T01:22:08.082Z,4.55
2023-05-19T01:25:10.445Z,4.05
2023-05-19T01:28:24.069Z,3.60
2023-05-19T01:30:55.939Z,3.53
2023-05-19T01:33:26.073Z,3.58
2023-05-19T01:35:56.540Z,3.15
2023-05-19T01:38:28.104Z,3.60
2023-05-19T01:40:58.679Z,4.47
2023-05-19T01:43:28.767Z,3.85
2023-05-19T01:45:59.667Z,2.90
2023-05-19T01:48:28.597Z,3.20
2023-05-19T01:50:59.831Z,3.67
2023-05-19T01:53:29.707Z,4.30
2023-05-19T01:55:58.833Z,3.03
2023-05-19T01:58:38.994Z,3.50
2023-05-19T02:01:17.962Z,3.30
2023-05-19T02:04:04.392Z,3.90
2023-05-19T02:06:42.900Z,3.85
2023-05-19T02:09:19.877Z,3.70
2023-05-19T02:11:55.809Z,4.55
2023-05-19T02:14:30.920Z,4.15
2023-05-19T02:17:03.281Z,3.45
2023-05-19T02:19:34.170Z,4.25
2023-05-19T02:22:02.879Z,4.00
2023-05-19T02:24:31.658Z,3.67
2023-05-19T02:27:03.847Z,3.85
2023-05-19T02:29:32.435Z,3.88
2023-05-19T02:32:03.477Z,3.88
2023-05-19T02:34:32.167Z,3.35
2023-05-19T02:37:03.382Z,3.90
2023-05-19T02:39:35.353Z,4.00
2023-05-19T02:42:04.166Z,4.03
2023-05-19T02:44:32.734Z,4.45
2023-05-19T02:47:01.738Z,5.13
2023-05-19T02:49:35.814Z,3.88
2023-05-19T02:52:04.682Z,5.93
2023-05-19T02:54:34.320Z,4.78
2023-05-19T02:57:03.136Z,5.55
2023-05-19T02:59:32.259Z,3.75
2023-05-19T03:02:02.740Z,5.85
2023-05-19T03:04:42.084Z,4.68
2023-05-19T03:07:13.439Z,3.90
2023-05-19T03:09:42.402Z,4.55
2023-05-19T03:12:14.053Z,4.60
2023-05-19T03:14:42.625Z,4.88
2023-05-19T03:17:11.306Z,4.00
2023-05-19T03:19:41.477Z,5.70
2023-05-19T03:22:10.105Z,4.25
2023-05-19T03:24:39.552Z,4.10
2023-05-19T03:27:09.117Z,5.20
2023-05-19T03:29:38.751Z,5.15
2023-05-19T03:32:07.767Z,3.92
2023-05-19T03:34:37.952Z,4.72
2023-05-19T03:37:07.925Z,4.35
2023-05-19T03:39:38.797Z,3.30
2023-05-19T03:42:07.797Z,4.57
2023-05-19T03:44:37.545Z,4.20
2023-05-19T03:47:06.821Z,5.00
2023-05-19T03:49:54.120Z,4.05
2023-05-19T03:52:45.586Z,4.43
2023-05-19T03:55:25.664Z,3.50
2023-05-19T03:57:54.233Z,3.72
2023-05-19T04:00:23.118Z,4.32
2023-05-19T04:02:52.709Z,3.50
2023-05-19T04:05:21.284Z,3.55
2023-05-19T04:07:51.325Z,6.18
2023-05-19T04:10:20.533Z,3.97
2023-05-19T04:12:50.429Z,3.33
2023-05-19T04:15:19.192Z,4.22
2023-05-19T04:17:48.011Z,3.50
2023-05-19T04:20:16.530Z,3.78
2023-05-19T04:22:45.170Z,3.75
2023-05-19T04:25:15.217Z,4.25
2023-05-19T04:27:43.901Z,4.80
2023-05-19T04:30:18.528Z,3.30
2023-05-19T04:32:47.709Z,3.67
2023-05-19T04:35:17.662Z,4.15
2023-05-19T04:37:46.941Z,3.50
2023-05-19T04:40:18.246Z,3.17
2023-05-19T04:42:46.881Z,4.78
2023-05-19T04:45:15.656Z,4.00
2023-05-19T04:47:49.110Z,3.65
2023-05-19T04:50:17.623Z,4.82
2023-05-19T04:52:46.552Z,3.25
2023-05-19T04:55:17.202Z,5.25
2023-05-19T04:57:48.102Z,3.15
2023-05-19T05:00:17.390Z,3.13
2023-05-19T05:03:00.001Z,3.47
2023-05-19T05:05:31.447Z,4.07
2023-05-19T05:08:00.229Z,29.83
2023-05-19T05:10:32.594Z,59.75
2023-05-19T05:13:03.545Z,27.65
2023-05-19T05:15:32.739Z,19.13
2023-05-19T05:18:04.123Z,15.95
2023-05-19T05:20:33.889Z,14.23
2023-05-19T05:23:07.140Z,16.73
2023-05-19T05:25:37.138Z,21.45
2023-05-19T05:28:07.927Z,28.48
2023-05-19T05:30:44.187Z,22.60
2023-05-19T05:33:13.503Z,20.08
2023-05-19T05:35:44.393Z,15.63
2023-05-19T05:38:24.083Z,36.38
2023-05-19T05:40:53.098Z,29.95
2023-05-19T05:43:23.950Z,26.48
2023-05-19T05:46:00.051Z,24.70
2023-05-19T05:48:29.655Z,15.10
2023-05-19T05:51:00.623Z,14.32
2023-05-19T05:53:37.183Z,13.60
2023-05-19T05:56:08.412Z,12.23
2023-05-19T05:58:46.858Z,10.65
2023-05-19T06:01:18.809Z,7.53
2023-05-19T06:03:47.846Z,8.50
2023-05-19T06:06:22.178Z,7.38
2023-05-19T06:08:51.835Z,7.88
2023-05-19T06:11:21.564Z,6.57
2023-05-19T06:13:52.395Z,6.00
2023-05-19T06:16:41.418Z,6.15
2023-05-19T06:19:11.216Z,6.30
2023-05-19T06:21:40.435Z,4.75
2023-05-19T06:24:09.441Z,5.35
2023-05-19T06:26:38.438Z,6.18
2023-05-19T06:29:09.013Z,4.95
2023-05-19T06:31:38.544Z,6.78
2023-05-19T06:34:12.616Z,5.10
2023-05-19T06:36:41.974Z,4.70
2023-05-19T06:39:11.976Z,5.22
2023-05-19T06:41:44.340Z,4.22
2023-05-19T06:44:26.455Z,6.40
2023-05-19T06:46:54.938Z,4.93
2023-05-19T06:49:24.046Z,5.20
2023-05-19T06:51:52.625Z,4.45
2023-05-19T06:54:21.960Z,5.95
2023-05-19T06:56:50.884Z,4.75
2023-05-19T06:59:21.913Z,4.05
2023-05-19T07:01:52.303Z,4.32
2023-05-19T07:04:20.997Z,4.72
2023-05-19T07:06:50.254Z,5.93
2023-05-19T07:09:19.217Z,5.05
2023-05-19T07:11:48.559Z,5.10
2023-05-19T07:14:18.059Z,5.68
2023-05-19T07:16:46.741Z,5.03
2023-05-19T07:19:16.819Z,4.95
2023-05-19T07:21:48.115Z,3.92
2023-05-19T07:24:17.318Z,4.30
2023-05-19T07:26:45.789Z,4.93
2023-05-19T07:29:15.815Z,4.40
2023-05-19T07:31:44.348Z,5.05
2023-05-19T07:34:12.884Z,4.93
2023-05-19T07:36:42.772Z,5.18
2023-05-19T07:39:12.059Z,3.63
2023-05-19T07:41:40.651Z,5.13
2023-05-19T07:44:10.657Z,6.43
2023-05-19T07:46:39.706Z,4.10
2023-05-19T07:49:08.836Z,4.18
2023-05-19T07:51:37.953Z,4.90
2023-05-19T07:54:08.476Z,5.40
2023-05-19T07:56:37.093Z,3.50
2023-05-19T07:59:06.008Z,3.53
2023-05-19T08:01:34.579Z,4.45
2023-05-19T08:04:03.496Z,4.72
2023-05-19T08:06:32.179Z,5.55
2023-05-19T08:09:00.764Z,5.38
2023-05-19T08:11:31.064Z,5.47
2023-05-19T08:13:59.513Z,4.38
2023-05-19T08:16:31.419Z,6.75
2023-05-19T08:19:02.607Z,4.85
2023-05-19T08:21:34.503Z,4.10
2023-05-19T08:24:03.653Z,5.22
2023-05-19T08:26:35.750Z,3.83
2023-05-19T08:29:05.678Z,4.10
2023-05-19T08:31:34.828Z,3.47
2023-05-19T08:34:04.056Z,4.72
2023-05-19T08:36:33.820Z,7.20
2023-05-19T08:39:02.721Z,4.32
2023-05-19T08:41:31.373Z,6.25
2023-05-19T08:44:01.218Z,5.20
2023-05-19T08:46:30.487Z,4.63
2023-05-19T08:49:06.567Z,4.20
2023-05-19T08:51:43.966Z,4.70
2023-05-19T08:54:16.902Z,4.63
2023-05-19T08:56:46.582Z,5.15
2023-05-19T08:59:18.374Z,4.15
2023-05-19T09:01:47.578Z,5.40
2023-05-19T09:04:18.241Z,3.70
2023-05-19T09:06:46.877Z,3.00
2023-05-19T09:09:15.703Z,3.30
2023-05-19T09:11:47.294Z,4.38
2023-05-19T09:14:17.880Z,4.78
2023-05-19T09:16:51.026Z,3.92
2023-05-19T09:19:22.920Z,4.63
2023-05-19T09:22:01.099Z,3.72
2023-05-19T09:24:29.878Z,4.85
2023-05-19T09:27:00.216Z,3.97
2023-05-19T09:29:32.017Z,4.47
2023-05-19T09:32:04.317Z,5.07
2023-05-19T09:34:36.165Z,3.00
2023-05-19T09:37:05.235Z,2.60
2023-05-19T09:39:33.921Z,5.10
2023-05-19T09:42:06.841Z,4.95
2023-05-19T09:44:36.738Z,4.18
2023-05-19T09:47:05.695Z,4.78
2023-05-19T09:49:34.107Z,3.35
2023-05-19T09:52:04.921Z,3.78
2023-05-19T09:54:35.584Z,5.53
2023-05-19T09:57:08.540Z,4.05
2023-05-19T09:59:40.005Z,3.20
2023-05-19T10:02:16.486Z,4.13
2023-05-19T10:04:47.815Z,4.28
2023-05-19T10:07:19.715Z,4.20
2023-05-19T10:09:51.488Z,4.00
2023-05-19T10:12:21.651Z,3.47
2023-05-19T10:14:54.914Z,3.00
2023-05-19T10:17:26.366Z,3.83
2023-05-19T10:19:56.034Z,3.45
2023-05-19T10:22:26.236Z,2.97
2023-05-19T10:24:56.070Z,3.58
2023-05-19T10:27:30.538Z,5.10
2023-05-19T10:30:11.479Z,3.88
2023-05-19T10:32:44.062Z,5.57
2023-05-19T10:35:44.138Z,4.60
2023-05-19T10:38:23.274Z,4.05
2023-05-19T10:41:03.341Z,3.72
2023-05-19T10:43:48.701Z,4.65
2023-05-19T10:46:19.536Z,4.28
2023-05-19T10:48:48.661Z,5.15
2023-05-19T10:51:17.963Z,3.40
2023-05-19T10:53:47.963Z,3.83
2023-05-19T10:56:31.093Z,3.75
2023-05-19T10:59:00.511Z,4.07
2023-05-19T11:01:34.827Z,2.95
2023-05-19T11:04:12.387Z,4.68
2023-05-19T11:06:41.912Z,4.20
2023-05-19T11:09:15.336Z,4.13
2023-05-19T11:11:47.533Z,2.97
2023-05-19T11:14:19.078Z,3.10
2023-05-19T11:16:50.695Z,5.03
2023-05-19T11:19:21.393Z,4.47
2023-05-19T11:21:52.634Z,3.75
2023-05-19T11:24:37.844Z,4.53
2023-05-19T11:27:23.101Z,3.33
2023-05-19T11:29:52.744Z,2.90
2023-05-19T11:32:23.655Z,5.00
2023-05-19T11:34:52.492Z,4.30
2023-05-19T11:37:21.477Z,3.50
2023-05-19T11:39:54.600Z,5.35
2023-05-19T11:42:29.226Z,4.03
2023-05-19T11:44:57.838Z,3.53
2023-05-19T11:47:28.580Z,4.28
2023-05-19T11:49:57.617Z,5.20
2023-05-19T11:52:27.477Z,5.65
2023-05-19T11:54:59.803Z,4.10
2023-05-19T11:57:28.420Z,6.80
2023-05-19T11:59:57.639Z,3.80
2023-05-19T12:02:28.551Z,3.10
2023-05-19T12:04:57.211Z,4.07
2023-05-19T12:07:26.548Z,3.35
2023-05-19T12:09:56.396Z,3.05
2023-05-19T12:12:25.083Z,3.30
2023-05-19T12:14:54.577Z,5.50
2023-05-19T12:17:24.374Z,3.47
2023-05-19T12:19:55.535Z,4.28
2023-05-19T12:22:26.787Z,3.70
2023-05-19T12:24:55.966Z,4.80
2023-05-19T12:27:26.336Z,3.50
2023-05-19T12:29:57.169Z,4.38
2023-05-19T12:32:26.950Z,4.75
2023-05-19T12:34:57.609Z,4.97
2023-05-19T12:37:30.195Z,4.20
2023-05-19T12:39:59.228Z,4.43
2023-05-19T12:42:31.261Z,3.30
2023-05-19T12:45:03.086Z,4.05
2023-05-19T12:47:34.871Z,5.18
2023-05-19T12:50:07.994Z,3.63
2023-05-19T12:52:43.907Z,4.00
2023-05-19T12:55:12.892Z,4.15
2023-05-19T12:57:43.111Z,5.00
2023-05-19T13:00:17.762Z,5.65
2023-05-19T13:02:57.586Z,3.72
2023-05-19T13:05:28.741Z,4.05
2023-05-19T13:08:00.057Z,6.60
2023-05-19T13:10:29.764Z,3.60
2023-05-19T13:13:00.309Z,4.63
2023-05-19T13:15:31.801Z,5.07
2023-05-19T13:18:02.556Z,4.43
2023-05-19T13:20:34.615Z,4.28
2023-05-19T13:23:03.754Z,4.35
2023-05-19T13:25:36.568Z,5.47
2023-05-19T13:28:06.144Z,3.58
2023-05-19T13:30:36.060Z,4.32
2023-05-19T13:33:05.198Z,3.15
2023-05-19T13:35:37.570Z,5.57
2023-05-19T13:38:06.960Z,4.38
2023-05-19T13:40:36.761Z,4.55
2023-05-19T13:43:06.154Z,4.45
2023-05-19T13:45:35.018Z,5.72
2023-05-19T13:48:03.856Z,3.38
2023-05-19T13:50:34.218Z,3.80
2023-05-19T13:53:04.701Z,3.28
2023-05-19T13:55:36.254Z,3.70
2023-05-19T13:58:04.880Z,3.08
2023-05-19T14:00:35.698Z,3.95
2023-05-19T14:03:06.933Z,4.00
2023-05-19T14:05:35.818Z,3.45
2023-05-19T14:08:06.793Z,3.38
2023-05-19T14:10:36.150Z,2.88
2023-05-19T14:13:29.951Z,3.63
2023-05-19T14:15:53.600Z,3.75
2023-05-19T14:18:22.569Z,3.47
2023-05-19T14:20:51.095Z,3.90
2023-05-19T14:23:21.769Z,3.97
2023-05-19T14:25:50.397Z,3.97
2023-05-19T14:28:20.317Z,4.00
2023-05-19T14:30:49.561Z,4.03
2023-05-19T14:33:19.416Z,5.15
2023-05-19T14:35:48.422Z,3.63
2023-05-19T14:38:16.934Z,4.20
2023-05-19T14:40:48.476Z,4.65
2023-05-19T14:43:16.975Z,3.10
2023-05-19T14:45:46.920Z,4.43
2023-05-19T14:48:15.847Z,3.28
2023-05-19T14:50:48.327Z,4.50
2023-05-19T14:53:20.594Z,5.20
2023-05-19T14:55:51.308Z,3.63
2023-05-19T14:58:27.457Z,2.90
2023-05-19T15:00:59.157Z,3.88
2023-05-19T15:03:27.917Z,3.40
2023-05-19T15:05:56.581Z,3.17
2023-05-19T15:08:25.160Z,3.72
2023-05-19T15:10:55.102Z,4.70
2023-05-19T15:13:23.697Z,3.20
2023-05-19T15:16:08.253Z,3.15
2023-05-19T15:18:44.437Z,2.63
2023-05-19T15:21:13.316Z,3.05
2023-05-19T15:23:42.153Z,3.33
2023-05-19T15:26:12.213Z,5.03
2023-05-19T15:28:40.784Z,3.20
2023-05-19T15:31:12.282Z,2.67
2023-05-19T15:33:41.120Z,3.63
2023-05-19T15:36:11.193Z,3.90
2023-05-19T15:38:39.896Z,3.20
2023-05-19T15:41:09.519Z,3.13
2023-05-19T15:43:41.409Z,3.17
2023-05-19T15:46:11.320Z,2.85
2023-05-19T15:48:39.979Z,3.47
2023-05-19T15:51:08.999Z,3.47
2023-05-19T15:53:37.970Z,3.40
2023-05-19T15:56:06.968Z,3.42
2023-05-19T15:58:35.906Z,3.28
2023-05-19T16:01:06.499Z,3.35
2023-05-19T16:03:35.698Z,3.20
2023-05-19T16:06:05.001Z,3.55
2023-05-19T16:08:33.644Z,3.75
2023-05-19T16:11:02.218Z,3.58
2023-05-19T16:13:33.559Z,3.78
2023-05-19T16:16:02.288Z,2.78
2023-05-19T16:18:32.416Z,3.13
2023-05-19T16:21:01.405Z,3.10
2023-05-19T16:23:29.982Z,3.53
2023-05-19T16:25:58.593Z,4.05
2023-05-19T16:28:28.005Z,3.08
2023-05-19T16:30:58.740Z,3.67
2023-05-19T16:33:27.709Z,3.50
2023-05-19T16:35:59.860Z,3.17
2023-05-19T16:38:28.446Z,3.83
2023-05-19T16:40:57.021Z,3.10
2023-05-19T16:43:26.341Z,4.22
2023-05-19T16:45:54.958Z,2.97
2023-05-19T16:48:23.594Z,3.30
2023-05-19T16:50:52.224Z,2.55
2023-05-19T16:53:22.580Z,3.95
2023-05-19T16:55:51.408Z,3.47
2023-05-19T16:58:20.035Z,2.97
2023-05-19T17:00:52.586Z,2.40
2023-05-19T17:03:21.511Z,3.00
2023-05-19T17:05:50.426Z,3.15
2023-05-19T17:08:19.048Z,3.70
2023-05-19T17:10:50.086Z,2.90
2023-05-19T17:13:18.752Z,3.05
2023-05-19T17:15:52.503Z,3.55
2023-05-19T17:18:21.202Z,3.70
2023-05-19T17:20:49.778Z,2.80
2023-05-19T17:23:18.401Z,3.55
2023-05-19T17:25:47.158Z,2.83
2023-05-19T17:28:17.102Z,3.60
2023-05-19T17:30:45.697Z,4.55
2023-05-19T17:33:14.347Z,2.67
2023-05-19T17:35:42.938Z,3.17
2023-05-19T17:38:11.432Z,3.45
2023-05-19T17:40:41.913Z,3.65
2023-05-19T17:43:10.846Z,4.35
2023-05-19T17:45:40.801Z,2.67
2023-05-19T17:48:09.490Z,3.42
2023-05-19T17:50:38.030Z,4.25
2023-05-19T17:53:07.055Z,3.70
2023-05-19T17:55:39.584Z,3.13
2023-05-19T17:58:08.881Z,4.10
2023-05-19T18:00:38.127Z,2.67
2023-05-19T18:03:09.231Z,3.90
2023-05-19T18:05:40.039Z,2.80
2023-05-19T18:08:09.572Z,2.92
2023-05-19T18:10:39.971Z,3.03
2023-05-19T18:13:10.548Z,3.50
2023-05-19T18:15:39.524Z,2.67
2023-05-19T18:18:10.854Z,2.97
2023-05-19T18:20:41.217Z,3.00
2023-05-19T18:23:09.920Z,3.00
2023-05-19T18:25:38.570Z,4.25
2023-05-19T18:28:07.110Z,3.13
2023-05-19T18:30:36.169Z,3.35
2023-05-19T18:33:05.896Z,3.42
2023-05-19T18:35:37.799Z,4.00
2023-05-19T18:38:06.868Z,3.45
2023-05-19T18:40:36.701Z,3.15
2023-05-19T18:43:05.806Z,3.13
2023-05-19T18:45:34.636Z,3.70
2023-05-19T18:48:03.930Z,2.65
2023-05-19T18:50:33.274Z,3.58
2023-05-19T18:53:03.723Z,3.50
2023-05-19T18:55:32.425Z,3.28
2023-05-19T18:58:01.806Z,2.88
2023-05-19T19:00:31.065Z,3.47
2023-05-19T19:03:00.112Z,2.92
2023-05-19T19:05:29.762Z,3.10
2023-05-19T19:07:59.015Z,5.13
2023-05-19T19:10:29.742Z,3.42
2023-05-19T19:12:58.957Z,2.45
2023-05-19T19:15:28.524Z,2.65
2023-05-19T19:17:57.790Z,3.70
2023-05-19T19:20:26.718Z,3.13
2023-05-19T19:22:56.920Z,3.50
2023-05-19T19:25:25.714Z,3.80
2023-05-19T19:27:56.501Z,2.70
2023-05-19T19:30:25.692Z,2.58
2023-05-19T19:32:57.012Z,2.85
2023-05-19T19:35:26.441Z,3.30
2023-05-19T19:37:55.465Z,2.80
2023-05-19T19:40:26.150Z,2.80
2023-05-19T19:42:56.774Z,2.65
2023-05-19T19:45:25.809Z,3.80
2023-05-19T19:47:54.994Z,3.30
2023-05-19T19:50:24.297Z,3.00
2023-05-19T19:52:53.297Z,2.75
2023-05-19T19:55:22.402Z,2.67
2023-05-19T19:57:51.316Z,2.65
2023-05-19T20:00:24.937Z,4.15
2023-05-19T20:03:03.753Z,2.80
2023-05-19T20:05:34.736Z,3.83
2023-05-19T20:08:03.430Z,3.15
2023-05-19T20:10:33.180Z,2.55
2023-05-19T20:13:02.111Z,2.35
2023-05-19T20:15:33.256Z,3.30
2023-05-19T20:18:02.519Z,3.40
2023-05-19T20:20:32.120Z,2.90
2023-05-19T20:23:01.385Z,2.90
2023-05-19T20:25:30.301Z,2.92
2023-05-19T20:27:59.139Z,3.15
2023-05-19T20:30:31.314Z,3.47
2023-05-19T20:33:00.537Z,2.67
2023-05-19T20:35:29.618Z,2.67
2023-05-19T20:37:58.465Z,2.58
2023-05-19T20:40:27.332Z,2.90
2023-05-19T20:42:56.434Z,2.20
2023-05-19T20:45:25.956Z,3.38
2023-05-19T20:47:57.120Z,3.47
2023-05-19T20:50:26.366Z,4.30
2023-05-19T20:52:55.496Z,2.80
2023-05-19T20:55:24.285Z,2.70
2023-05-19T20:57:53.172Z,2.63
2023-05-19T21:00:22.010Z,3.03
2023-05-19T21:02:50.850Z,2.85
2023-05-19T21:05:21.052Z,2.10
2023-05-19T21:07:50.879Z,2.40
2023-05-19T21:10:19.681Z,2.25
2023-05-19T21:12:48.667Z,2.38
2023-05-19T21:15:17.437Z,2.53
2023-05-19T21:17:46.611Z,2.40
2023-05-19T21:20:15.258Z,3.10
2023-05-19T21:22:45.379Z,2.22
2023-05-19T21:25:14.431Z,2.35
2023-05-19T21:27:46.267Z,3.38
2023-05-19T21:30:15.563Z,2.17
2023-05-19T21:32:44.384Z,2.70
2023-05-19T21:35:13.179Z,2.70
2023-05-19T21:37:41.813Z,2.67
2023-05-19T21:40:12.739Z,2.40
2023-05-19T21:42:41.328Z,2.72
2023-05-19T21:45:10.859Z,2.85
2023-05-19T21:47:42.019Z,3.13
2023-05-19T21:50:15.665Z,3.17
2023-05-19T21:52:44.461Z,2.60
2023-05-19T21:55:14.557Z,3.17
2023-05-19T21:57:43.258Z,2.33
2023-05-19T22:00:13.556Z,2.63
2023-05-19T22:02:42.236Z,2.90
2023-05-19T22:05:11.725Z,2.38
2023-05-19T22:07:40.605Z,2.40
2023-05-19T22:10:10.121Z,2.75
2023-05-19T22:12:40.208Z,3.28
2023-05-19T22:15:09.969Z,3.20
2023-05-19T22:17:38.762Z,2.35
2023-05-19T22:20:08.704Z,2.70
2023-05-19T22:22:40.023Z,3.00
2023-05-19T22:25:09.652Z,2.70
2023-05-19T22:27:38.448Z,2.35
2023-05-19T22:30:12.581Z,2.58
2023-05-19T22:32:41.174Z,3.53
2023-05-19T22:35:12.525Z,2.50
2023-05-19T22:37:41.204Z,3.97
2023-05-19T22:40:10.585Z,2.83
2023-05-19T22:42:39.453Z,3.33
2023-05-19T22:45:10.849Z,2.60
2023-05-19T22:47:40.130Z,2.50
2023-05-19T22:50:10.471Z,3.70
2023-05-19T22:52:39.474Z,3.80
2023-05-19T22:55:09.110Z,2.88
2023-05-19T22:57:37.861Z,4.25
2023-05-19T23:00:08.400Z,2.97
2023-05-19T23:02:38.510Z,3.17
2023-05-19T23:05:07.996Z,2.60
2023-05-19T23:07:36.540Z,3.00
2023-05-19T23:10:06.185Z,4.05
2023-05-19T23:12:34.889Z,3.25
2023-05-19T23:15:03.806Z,3.42
2023-05-19T23:17:35.281Z,2.58
2023-05-19T23:20:05.855Z,2.92
2023-05-19T23:22:34.380Z,3.30
2023-05-19T23:25:07.416Z,3.13
2023-05-19T23:27:36.442Z,2.90
2023-05-19T23:30:05.886Z,4.25
2023-05-19T23:32:34.555Z,3.63
2023-05-19T23:35:12.613Z,3.97
2023-05-19T23:37:41.351Z,3.58
2023-05-19T23:40:10.722Z,3.13
2023-05-19T23:42:39.508Z,3.42
2023-05-19T23:45:09.500Z,3.28
2023-05-19T23:47:38.245Z,3.72
2023-05-19T23:50:07.496Z,4.28
2023-05-19T23:52:37.973Z,3.45
2023-05-19T23:55:07.747Z,3.45
2023-05-19T23:57:36.430Z,3.20
